Time;durP1;ratioP1;P1;durP2;ratioP2;P2;SDS_P1;SDS_P2;PMS_P1;PMS_P2;Temp;Humidity;BMP_temperature;BMP_pressure;BME280_temperature;BME280_humidity;BME280_pressure;Samples;Min_cycle;Max_cycle;Signal;HPM_P1;HPM_P2
2022/03/21 00:01:45;;;;;;;8.90;5.60;;;;;;;;;;5056543;28;20952;-73
2022/03/21 00:04:15;;;;;;;8.50;5.23;;;;;;;;;;5056196;28;20800;-73
2022/03/21 00:06:43;;;;;;;9.33;6.23;;;;;;;;;;5056139;28;20454;-73
2022/03/21 00:09:11;;;;;;;9.23;5.17;;;;;;;;;;5056345;28;20499;-72
2022/03/21 00:11:39;;;;;;;10.20;6.33;;;;;;;;;;5055499;28;20854;-73
2022/03/21 00:14:07;;;;;;;7.83;4.93;;;;;;;;;;5056288;28;20557;-73
2022/03/21 00:16:36;;;;;;;11.30;7.20;;;;;;;;;;5056911;28;20464;-73
2022/03/21 00:19:04;;;;;;;12.67;6.37;;;;;;;;;;5056147;28;20837;-73
2022/03/21 00:21:34;;;;;;;9.07;4.50;;;;;;;;;;5055608;28;20544;-72
2022/03/21 00:24:02;;;;;;;6.37;4.70;;;;;;;;;;5054872;28;20949;-73
2022/03/21 00:26:30;;;;;;;8.80;6.17;;;;;;;;;;5056314;28;20473;-72
2022/03/21 00:28:58;;;;;;;10.13;6.13;;;;;;;;;;5056418;28;20453;-72
2022/03/21 00:31:27;;;;;;;8.77;6.03;;;;;;;;;;5056077;28;20449;-72
2022/03/21 00:33:54;;;;;;;7.47;5.47;;;;;;;;;;5056346;28;20461;-73
2022/03/21 00:36:23;;;;;;;7.43;4.90;;;;;;;;;;5055405;28;20936;-72
2022/03/21 00:38:57;;;;;;;8.53;5.40;;;;;;;;;;5054862;28;20434;-72
2022/03/21 00:41:26;;;;;;;9.43;5.93;;;;;;;;;;5055636;28;20449;-73
2022/03/21 00:43:53;;;;;;;11.10;4.90;;;;;;;;;;5055719;28;20728;-73
2022/03/21 00:46:21;;;;;;;8.10;4.80;;;;;;;;;;5055707;28;20445;-73
2022/03/21 00:48:49;;;;;;;13.03;6.37;;;;;;;;;;5055266;28;20458;-73
2022/03/21 00:51:17;;;;;;;12.00;6.80;;;;;;;;;;5055963;28;20935;-73
2022/03/21 00:53:52;;;;;;;9.47;5.30;;;;;;;;;;5055670;28;20665;-73
2022/03/21 00:56:20;;;;;;;18.10;5.17;;;;;;;;;;5055262;28;20512;-73
2022/03/21 00:58:48;;;;;;;5.93;4.63;;;;;;;;;;5055130;28;20457;-73
2022/03/21 01:01:16;;;;;;;14.50;6.50;;;;;;;;;;5055460;28;20473;-73
2022/03/21 01:03:47;;;;;;;9.73;7.00;;;;;;;;;;5054260;28;20524;-73
2022/03/21 01:06:15;;;;;;;7.80;5.93;;;;;;;;;;5054112;28;20472;-73
2022/03/21 01:08:42;;;;;;;10.33;4.80;;;;;;;;;;5052929;28;20482;-73
2022/03/21 01:11:12;;;;;;;7.93;5.23;;;;;;;;;;5053729;28;20450;-73
2022/03/21 01:13:42;;;;;;;12.90;6.40;;;;;;;;;;5053537;28;20457;-73
2022/03/21 01:16:10;;;;;;;6.47;5.13;;;;;;;;;;5048855;28;20552;-72
2022/03/21 01:18:37;;;;;;;10.53;5.10;;;;;;;;;;5055812;28;20544;-73
2022/03/21 01:21:06;;;;;;;11.03;6.90;;;;;;;;;;5056571;28;20888;-73
2022/03/21 01:23:37;;;;;;;12.27;6.93;;;;;;;;;;5056007;28;20523;-73
2022/03/21 01:26:04;;;;;;;8.83;5.43;;;;;;;;;;5056462;28;20463;-73
2022/03/21 01:28:34;;;;;;;8.40;5.93;;;;;;;;;;5056083;28;20940;-73
2022/03/21 01:31:01;;;;;;;12.53;7.00;;;;;;;;;;5055769;28;20461;-73
2022/03/21 01:33:35;;;;;;;12.93;6.87;;;;;;;;;;5055298;28;20454;-72
2022/03/21 01:36:05;;;;;;;9.10;7.07;;;;;;;;;;5056143;28;20462;-72
2022/03/21 01:38:33;;;;;;;10.70;5.73;;;;;;;;;;5056595;28;20453;-73
2022/03/21 01:41:01;;;;;;;12.23;5.97;;;;;;;;;;5054841;28;20892;-72
2022/03/21 01:43:29;;;;;;;10.40;6.40;;;;;;;;;;5055149;28;20905;-73
2022/03/21 01:45:58;;;;;;;7.40;5.30;;;;;;;;;;5055213;28;20763;-73
2022/03/21 01:48:26;;;;;;;8.27;3.97;;;;;;;;;;5054948;28;20712;-73
2022/03/21 01:50:54;;;;;;;10.50;6.40;;;;;;;;;;5055322;28;20462;-73
2022/03/21 01:56:07;;;;;;;11.47;6.17;;;;;;;;;;5055017;28;20523;-72
2022/03/21 01:58:35;;;;;;;7.50;4.97;;;;;;;;;;5055455;28;20831;-72
2022/03/21 02:01:04;;;;;;;7.67;4.20;;;;;;;;;;5055449;28;20462;-72
2022/03/21 02:03:31;;;;;;;7.90;5.73;;;;;;;;;;5054415;28;20957;-72
2022/03/21 02:05:59;;;;;;;11.97;6.40;;;;;;;;;;5055462;28;20699;-72
2022/03/21 02:08:27;;;;;;;11.60;6.57;;;;;;;;;;5055131;28;20454;-73
2022/03/21 02:10:55;;;;;;;11.50;5.53;;;;;;;;;;5054927;28;20497;-72
2022/03/21 02:13:23;;;;;;;8.37;5.27;;;;;;;;;;5054854;28;20477;-73
2022/03/21 02:15:54;;;;;;;12.63;5.43;;;;;;;;;;5055269;28;20473;-73
2022/03/21 02:18:25;;;;;;;7.40;5.10;;;;;;;;;;5055084;28;20543;-72
2022/03/21 02:20:54;;;;;;;7.40;5.83;;;;;;;;;;5052954;28;20504;-73
2022/03/21 02:23:25;;;;;;;10.10;6.17;;;;;;;;;;5054808;28;20554;-72
2022/03/21 02:25:55;;;;;;;8.00;5.23;;;;;;;;;;5055045;28;20450;-72
2022/03/21 02:28:24;;;;;;;12.17;7.10;;;;;;;;;;5054688;28;20858;-73
2022/03/21 02:30:53;;;;;;;11.47;6.40;;;;;;;;;;5054723;28;20460;-72
2022/03/21 02:33:21;;;;;;;10.20;6.37;;;;;;;;;;5055227;28;20446;-72
2022/03/21 02:35:49;;;;;;;9.63;6.30;;;;;;;;;;5054363;28;20759;-72
2022/03/21 02:38:18;;;;;;;10.33;6.90;;;;;;;;;;5054707;28;20461;-73
2022/03/21 02:40:46;;;;;;;7.97;4.20;;;;;;;;;;5054818;28;20969;-72
2022/03/21 02:43:17;;;;;;;9.83;5.77;;;;;;;;;;5054694;28;20916;-72
2022/03/21 02:45:45;;;;;;;10.77;7.20;;;;;;;;;;5054876;28;20495;-72
2022/03/21 02:48:14;;;;;;;10.53;7.00;;;;;;;;;;5053978;28;20460;-73
2022/03/21 02:50:44;;;;;;;13.53;7.27;;;;;;;;;;5055138;28;20505;-73
2022/03/21 02:53:13;;;;;;;9.20;6.23;;;;;;;;;;5054528;28;20484;-73
2022/03/21 02:55:42;;;;;;;9.77;5.87;;;;;;;;;;5054840;28;20480;-72
2022/03/21 02:58:10;;;;;;;8.23;6.80;;;;;;;;;;5054641;28;20460;-73
2022/03/21 03:00:39;;;;;;;9.40;6.20;;;;;;;;;;5055020;28;20464;-72
2022/03/21 03:03:08;;;;;;;12.80;6.70;;;;;;;;;;5056751;28;20901;-72
2022/03/21 03:05:36;;;;;;;14.03;6.80;;;;;;;;;;5058880;28;20854;-73
2022/03/21 03:08:04;;;;;;;8.67;6.67;;;;;;;;;;5058172;28;20694;-72
2022/03/21 03:10:32;;;;;;;7.47;6.40;;;;;;;;;;5058561;28;20519;-73
2022/03/21 03:13:00;;;;;;;13.50;7.07;;;;;;;;;;5058844;28;20456;-73
2022/03/21 03:15:28;;;;;;;8.73;5.83;;;;;;;;;;5058059;28;20704;-73
2022/03/21 03:18:00;;;;;;;11.13;7.73;;;;;;;;;;5057819;28;20453;-72
2022/03/21 03:20:28;;;;;;;10.10;6.30;;;;;;;;;;5057811;28;20461;-73
2022/03/21 03:22:57;;;;;;;11.13;6.23;;;;;;;;;;5058054;28;20931;-72
2022/03/21 03:25:25;;;;;;;10.57;6.60;;;;;;;;;;5058164;28;20484;-72
2022/03/21 03:27:53;;;;;;;7.87;4.67;;;;;;;;;;5058703;28;20442;-72
2022/03/21 03:30:24;;;;;;;11.80;6.63;;;;;;;;;;5058254;28;20530;-72
2022/03/21 03:32:59;;;;;;;12.23;6.87;;;;;;;;;;5058732;28;20560;-72
2022/03/21 03:35:28;;;;;;;11.30;6.90;;;;;;;;;;5057961;28;20455;-72
2022/03/21 03:37:56;;;;;;;11.57;6.20;;;;;;;;;;5057420;28;20476;-72
2022/03/21 03:40:24;;;;;;;12.80;5.30;;;;;;;;;;5057836;28;20484;-72
2022/03/21 03:42:52;;;;;;;8.33;6.90;;;;;;;;;;5057881;28;20461;-72
2022/03/21 03:45:20;;;;;;;9.37;6.80;;;;;;;;;;5057504;28;20484;-72
2022/03/21 03:47:48;;;;;;;14.00;6.90;;;;;;;;;;5057969;28;20506;-73
2022/03/21 03:50:17;;;;;;;15.80;7.40;;;;;;;;;;5057317;28;20464;-72
2022/03/21 03:52:46;;;;;;;9.27;5.73;;;;;;;;;;5057853;28;20454;-73
2022/03/21 03:55:14;;;;;;;7.27;5.30;;;;;;;;;;5057344;28;20520;-72
2022/03/21 03:57:42;;;;;;;11.77;6.63;;;;;;;;;;5057547;28;20445;-73
2022/03/21 04:00:10;;;;;;;11.07;7.43;;;;;;;;;;5057086;28;20465;-72
2022/03/21 04:05:21;;;;;;;9.70;5.57;;;;;;;;;;5055628;28;20853;-73
2022/03/21 04:07:49;;;;;;;15.53;7.33;;;;;;;;;;5056695;28;20483;-73
2022/03/21 04:10:17;;;;;;;13.53;7.43;;;;;;;;;;5057169;28;20511;-72
2022/03/21 04:12:46;;;;;;;12.20;6.77;;;;;;;;;;5056535;28;20453;-73
2022/03/21 04:15:14;;;;;;;12.43;6.97;;;;;;;;;;5056742;28;20441;-73
2022/03/21 04:17:42;;;;;;;10.20;7.00;;;;;;;;;;5056389;28;20796;-73
2022/03/21 04:20:10;;;;;;;8.20;5.77;;;;;;;;;;5056244;28;20465;-73
2022/03/21 04:22:46;;;;;;;12.33;7.03;;;;;;;;;;5056712;28;20442;-73
2022/03/21 04:25:14;;;;;;;12.07;7.10;;;;;;;;;;5056345;28;20493;-73
2022/03/21 04:27:42;;;;;;;4.47;3.40;;;;;;;;;;5057066;28;20530;-73
2022/03/21 04:30:10;;;;;;;10.80;6.20;;;;;;;;;;5055834;28;20453;-72
2022/03/21 04:32:38;;;;;;;11.70;7.30;;;;;;;;;;5056619;28;20464;-73
2022/03/21 04:35:07;;;;;;;14.00;7.67;;;;;;;;;;5055740;28;20441;-73
2022/03/21 04:37:35;;;;;;;10.93;5.20;;;;;;;;;;5056390;28;20485;-72
2022/03/21 04:40:04;;;;;;;13.57;6.80;;;;;;;;;;5056262;28;20718;-72
2022/03/21 04:42:32;;;;;;;14.90;7.90;;;;;;;;;;5056438;28;20460;-72
2022/03/21 04:45:03;;;;;;;7.90;5.80;;;;;;;;;;5055225;28;21812;-73
2022/03/21 04:47:31;;;;;;;12.97;7.77;;;;;;;;;;5055576;28;20445;-72
2022/03/21 04:50:07;;;;;;;14.10;7.77;;;;;;;;;;5055768;28;20528;-72
2022/03/21 04:52:35;;;;;;;8.37;5.93;;;;;;;;;;5054663;28;20452;-72
2022/03/21 04:55:04;;;;;;;18.23;9.77;;;;;;;;;;5055906;28;20722;-72
2022/03/21 04:57:33;;;;;;;12.10;7.37;;;;;;;;;;5055765;28;20749;-73
2022/03/21 05:00:01;;;;;;;10.47;6.37;;;;;;;;;;5055306;28;20488;-73
2022/03/21 05:02:29;;;;;;;9.90;6.07;;;;;;;;;;5055815;28;20813;-72
2022/03/21 05:05:02;;;;;;;10.33;7.30;;;;;;;;;;5055889;28;20513;-73
2022/03/21 05:07:32;;;;;;;7.40;6.30;;;;;;;;;;5055506;28;20707;-73
2022/03/21 05:10:01;;;;;;;12.50;6.33;;;;;;;;;;5055469;28;20454;-72
2022/03/21 05:12:32;;;;;;;11.30;6.83;;;;;;;;;;5055123;28;20540;-72
2022/03/21 05:14:59;;;;;;;14.93;8.20;;;;;;;;;;5055981;28;20838;-72
2022/03/21 05:17:29;;;;;;;10.87;6.93;;;;;;;;;;5055799;28;20445;-73
2022/03/21 05:19:57;;;;;;;17.67;8.17;;;;;;;;;;5054444;28;20511;-73
2022/03/21 05:22:27;;;;;;;11.17;7.27;;;;;;;;;;5055095;28;20461;-73
2022/03/21 05:36:12;;;;;;;12.50;7.17;;;;;;;;;;5054350;28;20416;-73
2022/03/21 05:38:40;;;;;;;12.20;7.70;;;;;;;;;;5054463;28;20456;-73
2022/03/21 05:41:08;;;;;;;9.30;6.73;;;;;;;;;;5047137;28;20849;-73
2022/03/21 05:43:38;;;;;;;15.10;7.53;;;;;;;;;;5054524;28;20711;-73
2022/03/21 05:46:06;;;;;;;10.10;7.20;;;;;;;;;;5054674;28;20541;-73
2022/03/21 05:48:58;;;;;;;8.60;6.20;;;;;;;;;;5053924;28;20462;-73
2022/03/21 05:51:28;;;;;;;9.70;6.23;;;;;;;;;;5054763;28;20789;-73
2022/03/21 05:53:57;;;;;;;16.90;8.37;;;;;;;;;;5054613;28;20704;-73
2022/03/21 05:56:25;;;;;;;11.77;6.90;;;;;;;;;;5040183;28;20469;-73
2022/03/21 05:58:55;;;;;;;8.90;5.90;;;;;;;;;;5050525;28;20461;-73
2022/03/21 06:01:24;;;;;;;11.57;8.57;;;;;;;;;;5047290;28;21170;-73
2022/03/21 06:03:53;;;;;;;15.20;7.77;;;;;;;;;;5034812;28;20767;-73
2022/03/21 06:06:21;;;;;;;10.20;6.67;;;;;;;;;;5065029;28;20861;-74
2022/03/21 06:08:49;;;;;;;10.00;6.40;;;;;;;;;;5073210;28;20460;-73
2022/03/21 06:11:17;;;;;;;11.83;8.10;;;;;;;;;;5055448;28;20450;-72
2022/03/21 06:13:45;;;;;;;11.20;6.93;;;;;;;;;;5052958;28;20449;-73
2022/03/21 06:16:17;;;;;;;11.23;7.67;;;;;;;;;;5053244;28;20699;-72
2022/03/21 06:18:46;;;;;;;10.37;6.70;;;;;;;;;;5052939;28;20460;-72
2022/03/21 06:21:16;;;;;;;10.70;8.17;;;;;;;;;;5052051;28;20454;-72
2022/03/21 06:23:44;;;;;;;11.30;8.00;;;;;;;;;;5013652;28;20546;-72
2022/03/21 06:26:12;;;;;;;15.20;7.37;;;;;;;;;;5020653;28;20545;-73
2022/03/21 06:28:40;;;;;;;11.00;8.80;;;;;;;;;;5034301;28;21061;-73
2022/03/21 06:31:10;;;;;;;12.90;8.10;;;;;;;;;;5031926;28;20538;-73
2022/03/21 06:33:42;;;;;;;10.03;6.40;;;;;;;;;;5030965;28;20728;-73
2022/03/21 06:36:13;;;;;;;14.23;7.70;;;;;;;;;;5035558;28;20660;-73
2022/03/21 06:38:43;;;;;;;12.03;8.30;;;;;;;;;;5013136;28;20788;-74
2022/03/21 06:41:10;;;;;;;11.53;8.33;;;;;;;;;;5013247;28;20946;-73
2022/03/21 06:43:39;;;;;;;11.10;6.73;;;;;;;;;;5012011;28;20446;-73
2022/03/21 06:46:08;;;;;;;10.90;8.27;;;;;;;;;;5013190;28;20459;-73
2022/03/21 06:48:37;;;;;;;11.80;6.53;;;;;;;;;;5016756;28;20457;-73
2022/03/21 06:51:16;;;;;;;12.07;8.50;;;;;;;;;;5022179;28;21072;-73
2022/03/21 06:53:46;;;;;;;13.30;6.77;;;;;;;;;;5029621;28;20558;-73
2022/03/21 06:56:16;;;;;;;17.50;7.83;;;;;;;;;;5012987;28;20451;-72
2022/03/21 06:58:45;;;;;;;14.10;8.90;;;;;;;;;;5012814;28;21034;-72
2022/03/21 07:01:14;;;;;;;12.80;7.33;;;;;;;;;;5012076;28;20538;-72
2022/03/21 07:03:41;;;;;;;10.47;7.37;;;;;;;;;;5012965;28;20440;-72
2022/03/21 07:06:11;;;;;;;11.27;8.33;;;;;;;;;;5017157;28;20462;-72
2022/03/21 07:08:41;;;;;;;9.93;6.47;;;;;;;;;;5025337;28;20545;-73
2022/03/21 07:11:13;;;;;;;10.13;7.30;;;;;;;;;;5021310;28;20497;-73
2022/03/21 07:13:41;;;;;;;10.80;6.93;;;;;;;;;;5024781;28;20457;-72
2022/03/21 07:16:15;;;;;;;12.43;7.63;;;;;;;;;;5016035;28;20465;-72
2022/03/21 07:18:49;;;;;;;10.40;7.30;;;;;;;;;;5015852;28;20486;-73
2022/03/21 07:21:22;;;;;;;11.60;7.10;;;;;;;;;;5047749;28;20555;-73
2022/03/21 07:23:50;;;;;;;12.87;7.40;;;;;;;;;;5051882;28;20464;-72
2022/03/21 07:26:20;;;;;;;12.00;7.53;;;;;;;;;;5049682;28;20464;-73
2022/03/21 07:28:50;;;;;;;10.23;7.07;;;;;;;;;;5043486;28;20986;-73
2022/03/21 07:31:19;;;;;;;19.43;7.97;;;;;;;;;;5051025;28;20457;-72
2022/03/21 07:33:48;;;;;;;12.07;8.67;;;;;;;;;;5052409;28;20437;-72
2022/03/21 07:36:18;;;;;;;11.77;7.87;;;;;;;;;;5050137;28;20469;-72
2022/03/21 07:38:48;;;;;;;14.10;8.80;;;;;;;;;;5045622;28;20456;-72
2022/03/21 07:41:16;;;;;;;11.97;8.00;;;;;;;;;;5037263;28;20786;-73
2022/03/21 07:43:50;;;;;;;11.33;8.20;;;;;;;;;;5051658;28;20866;-73
2022/03/21 07:49:06;;;;;;;15.27;8.80;;;;;;;;;;5050861;28;20440;-73
2022/03/21 07:51:34;;;;;;;15.17;8.40;;;;;;;;;;5050351;28;20463;-73
2022/03/21 07:54:08;;;;;;;12.50;7.60;;;;;;;;;;5036237;28;20537;-73
2022/03/21 07:56:37;;;;;;;13.10;8.50;;;;;;;;;;5044868;28;20564;-72
2022/03/21 07:59:11;;;;;;;11.93;7.90;;;;;;;;;;5053953;28;20507;-73
2022/03/21 08:01:42;;;;;;;11.37;8.10;;;;;;;;;;5054042;28;20475;-72
2022/03/21 08:04:10;;;;;;;12.47;9.03;;;;;;;;;;5053366;28;20472;-72
2022/03/21 08:06:38;;;;;;;13.50;8.97;;;;;;;;;;5046444;28;20462;-73
2022/03/21 08:09:08;;;;;;;11.97;8.47;;;;;;;;;;5036451;28;21085;-72
2022/03/21 08:11:45;;;;;;;11.40;8.07;;;;;;;;;;5035830;28;20749;-74
2022/03/21 08:14:19;;;;;;;13.73;9.53;;;;;;;;;;5042668;28;20805;-73
2022/03/21 08:16:50;;;;;;;11.20;8.00;;;;;;;;;;5048069;28;20469;-72
2022/03/21 08:19:24;;;;;;;13.90;8.73;;;;;;;;;;5055172;28;20472;-73
2022/03/21 08:21:52;;;;;;;14.30;7.73;;;;;;;;;;5053036;28;20570;-73
2022/03/21 08:24:23;;;;;;;13.33;7.70;;;;;;;;;;5037409;28;20871;-73
2022/03/21 08:27:01;;;;;;;11.80;7.80;;;;;;;;;;5052194;28;20465;-72
2022/03/21 08:29:43;;;;;;;10.50;7.83;;;;;;;;;;5042325;28;20514;-73
2022/03/21 08:32:16;;;;;;;13.53;7.30;;;;;;;;;;5052471;28;20928;-73
2022/03/21 08:34:44;;;;;;;13.07;8.97;;;;;;;;;;5055077;28;20477;-73
2022/03/21 08:37:17;;;;;;;15.60;8.90;;;;;;;;;;5050944;28;20459;-72
2022/03/21 08:42:48;;;;;;;14.30;9.17;;;;;;;;;;5032819;28;20476;-72
2022/03/21 08:49:23;;;;;;;12.03;9.00;;;;;;;;;;5034489;28;20537;-71
2022/03/21 08:51:11;;;;;;;11.97;8.97;;;;;;;;;;5035852;28;20481;-72
2022/03/21 08:53:39;;;;;;;16.37;8.60;;;;;;;;;;5034767;28;20465;-73
2022/03/21 08:56:49;;;;;;;13.57;9.00;;;;;;;;;;5035584;28;20438;-71
2022/03/21 08:59:19;;;;;;;13.00;8.53;;;;;;;;;;5033779;28;20454;-72
2022/03/21 09:01:59;;;;;;;13.67;10.90;;;;;;;;;;5034862;28;20454;-73
2022/03/21 09:04:30;;;;;;;16.07;10.10;;;;;;;;;;5034458;28;20461;-71
2022/03/21 09:07:03;;;;;;;18.40;8.90;;;;;;;;;;5052979;28;20862;-72
2022/03/21 09:09:33;;;;;;;11.30;6.50;;;;;;;;;;5054362;28;20963;-73
2022/03/21 09:12:01;;;;;;;12.23;9.33;;;;;;;;;;5050951;28;20485;-72
2022/03/21 09:14:33;;;;;;;14.33;9.40;;;;;;;;;;5042458;28;20964;-73
2022/03/21 09:17:03;;;;;;;16.23;9.90;;;;;;;;;;5034036;28;20879;-73
2022/03/21 09:19:36;;;;;;;9.50;7.30;;;;;;;;;;5034177;28;20531;-73
2022/03/21 09:22:04;;;;;;;12.43;8.97;;;;;;;;;;5034924;28;20478;-72
2022/03/21 09:24:38;;;;;;;8.90;6.37;;;;;;;;;;5052814;28;20850;-73
2022/03/21 09:27:07;;;;;;;14.93;8.87;;;;;;;;;;5054863;28;20470;-73
2022/03/21 09:29:40;;;;;;;13.17;9.20;;;;;;;;;;5055293;28;20458;-73
2022/03/21 09:32:10;;;;;;;10.17;7.33;;;;;;;;;;5035792;28;20529;-73
2022/03/21 09:34:45;;;;;;;12.47;9.10;;;;;;;;;;5039149;28;20472;-73
2022/03/21 09:37:16;;;;;;;13.10;9.00;;;;;;;;;;5046871;28;20460;-76
2022/03/21 09:39:51;;;;;;;11.23;7.70;;;;;;;;;;5048187;28;20454;-74
2022/03/21 09:42:21;;;;;;;12.67;8.97;;;;;;;;;;5053818;28;20459;-73
2022/03/21 09:44:55;;;;;;;11.77;8.73;;;;;;;;;;5053142;28;20512;-74
2022/03/21 09:50:12;;;;;;;13.97;8.57;;;;;;;;;;5047384;28;20436;-73
2022/03/21 09:52:56;;;;;;;18.23;9.00;;;;;;;;;;5050775;28;20537;-72
2022/03/21 09:55:26;;;;;;;11.33;7.90;;;;;;;;;;5054733;28;20537;-76
2022/03/21 09:57:56;;;;;;;10.70;8.97;;;;;;;;;;5052996;28;20835;-73
2022/03/21 10:00:34;;;;;;;15.17;10.60;;;;;;;;;;5053266;28;20481;-72
2022/03/21 10:03:05;;;;;;;11.80;8.70;;;;;;;;;;5037319;28;20457;-72
2022/03/21 10:05:36;;;;;;;15.13;9.20;;;;;;;;;;5052419;28;20962;-72
2022/03/21 10:08:28;;;;;;;12.70;8.83;;;;;;;;;;5052653;28;20791;-72
2022/03/21 10:10:59;;;;;;;11.33;8.57;;;;;;;;;;5051464;28;20466;-72
2022/03/21 10:13:28;;;;;;;12.20;8.90;;;;;;;;;;5052882;28;20469;-72
2022/03/21 10:16:09;;;;;;;12.33;7.80;;;;;;;;;;5052358;28;20848;-73
2022/03/21 10:18:38;;;;;;;15.47;9.30;;;;;;;;;;5041273;28;20457;-73
2022/03/21 10:21:14;;;;;;;13.33;8.70;;;;;;;;;;5040228;28;20458;-72
2022/03/21 10:23:46;;;;;;;11.37;9.50;;;;;;;;;;5040547;28;20880;-72
2022/03/21 10:26:34;;;;;;;11.83;8.23;;;;;;;;;;5050426;28;20492;-72
2022/03/21 10:29:10;;;;;;;10.40;8.30;;;;;;;;;;5051596;28;21000;-72
2022/03/21 10:31:59;;;;;;;15.10;10.70;;;;;;;;;;5045396;28;20779;-73
2022/03/21 10:34:33;;;;;;;11.50;8.67;;;;;;;;;;5044682;28;20468;-73
2022/03/21 10:37:07;;;;;;;13.50;9.73;;;;;;;;;;5047478;28;20444;-73
2022/03/21 10:39:38;;;;;;;11.00;8.50;;;;;;;;;;5049233;28;20454;-73
2022/03/21 10:42:09;;;;;;;15.30;10.03;;;;;;;;;;5034755;28;20454;-71
2022/03/21 10:44:44;;;;;;;13.47;9.77;;;;;;;;;;5045977;28;20548;-72
2022/03/21 10:47:21;;;;;;;10.87;8.07;;;;;;;;;;5043474;28;20437;-72
2022/03/21 10:50:14;;;;;;;12.20;9.47;;;;;;;;;;5047868;28;20445;-73
2022/03/21 10:52:48;;;;;;;12.70;8.70;;;;;;;;;;5026904;28;20460;-72
2022/03/21 10:55:31;;;;;;;17.53;9.30;;;;;;;;;;5046373;28;20834;-74
2022/03/21 10:58:05;;;;;;;14.07;10.70;;;;;;;;;;5051255;28;20837;-73
2022/03/21 11:00:35;;;;;;;14.60;9.87;;;;;;;;;;5048384;28;20461;-73
2022/03/21 11:03:39;;;;;;;11.67;8.47;;;;;;;;;;5049379;28;20498;-73
2022/03/21 11:06:14;;;;;;;13.23;10.00;;;;;;;;;;5052013;28;21252;-74
2022/03/21 11:08:47;;;;;;;12.67;9.07;;;;;;;;;;5048208;28;20856;-73
2022/03/21 11:14:32;;;;;;;16.47;10.20;;;;;;;;;;5051835;28;20437;-72
2022/03/21 11:17:02;;;;;;;12.10;9.57;;;;;;;;;;5035622;28;20462;-72
2022/03/21 11:19:32;;;;;;;13.57;7.10;;;;;;;;;;5036302;28;20462;-72
2022/03/21 11:22:23;;;;;;;13.67;9.20;;;;;;;;;;5044051;28;20454;-72
2022/03/21 11:25:10;;;;;;;13.33;10.07;;;;;;;;;;5049557;28;20881;-72
2022/03/21 11:28:07;;;;;;;15.07;10.37;;;;;;;;;;5054345;28;20840;-74
2022/03/21 11:30:53;;;;;;;12.20;8.63;;;;;;;;;;5045178;28;20457;-74
2022/03/21 11:33:26;;;;;;;12.37;9.30;;;;;;;;;;5044613;28;20462;-73
2022/03/21 11:36:05;;;;;;;11.83;8.70;;;;;;;;;;5042151;28;20446;-74
2022/03/21 11:38:41;;;;;;;12.90;9.77;;;;;;;;;;5046240;28;20508;-73
2022/03/21 11:41:15;;;;;;;15.40;10.10;;;;;;;;;;5036829;28;20449;-73
2022/03/21 11:46:42;;;;;;;10.93;9.40;;;;;;;;;;5045351;28;20568;-72
2022/03/21 11:49:27;;;;;;;12.60;9.60;;;;;;;;;;5051252;28;20500;-72
2022/03/21 11:52:24;;;;;;;15.23;10.47;;;;;;;;;;5052447;28;20546;-73
2022/03/21 11:54:58;;;;;;;17.13;10.50;;;;;;;;;;5048968;28;20470;-74
2022/03/21 11:57:35;;;;;;;15.00;9.80;;;;;;;;;;5051338;28;20451;-74
2022/03/21 12:00:24;;;;;;;15.00;11.63;;;;;;;;;;5058179;28;20453;-75
2022/03/21 12:03:03;;;;;;;14.47;10.30;;;;;;;;;;5049801;28;20537;-74
2022/03/21 12:05:59;;;;;;;12.07;9.87;;;;;;;;;;5056045;28;20683;-75
2022/03/21 12:08:38;;;;;;;18.43;10.40;;;;;;;;;;5051347;28;20471;-73
2022/03/21 12:11:48;;;;;;;14.87;11.13;;;;;;;;;;5045452;28;20512;-74
2022/03/21 12:14:48;;;;;;;14.20;11.53;;;;;;;;;;5049896;28;20461;-73
2022/03/21 12:17:38;;;;;;;10.97;8.70;;;;;;;;;;5035128;28;20453;-74
2022/03/21 12:20:23;;;;;;;;;;;;;;;;;;;;;
2022/03/21 12:23:22;;;;;;;;;;;;;;;;;;;;;
2022/03/21 12:25:51;;;;;;;13.80;9.23;;;;;;;;;;5041656;28;20517;-73
2022/03/21 12:29:31;;;;;;;16.80;11.47;;;;;;;;;;5054552;28;20485;-73
2022/03/21 12:31:31;;;;;;;13.70;9.43;;;;;;;;;;5053088;28;20449;-73
2022/03/21 12:34:27;;;;;;;16.13;10.97;;;;;;;;;;5052136;28;20449;-73
2022/03/21 12:40:17;;;;;;;19.03;10.50;;;;;;;;;;5047290;28;20812;-73
2022/03/21 12:46:16;;;;;;;13.00;9.27;;;;;;;;;;5034417;28;20938;-75
2022/03/21 12:49:11;;;;;;;12.37;9.80;;;;;;;;;;5051428;28;20475;-74
2022/03/21 12:51:40;;;;;;;17.03;10.70;;;;;;;;;;5042765;28;20477;-74
2022/03/21 12:54:36;;;;;;;;;;;;;;;;;;;;;
2022/03/21 12:57:09;;;;;;;11.73;8.30;;;;;;;;;;5047261;28;21279;-73
2022/03/21 12:59:48;;;;;;;14.63;9.50;;;;;;;;;;5042298;28;20865;-74
2022/03/21 13:02:40;;;;;;;14.00;10.37;;;;;;;;;;5039339;28;20555;-72
2022/03/21 13:11:32;;;;;;;14.53;10.20;;;;;;;;;;5052491;28;20488;-74
2022/03/21 13:14:23;;;;;;;14.80;9.53;;;;;;;;;;5046449;28;20910;-74
2022/03/21 13:19:57;;;;;;;16.57;10.27;;;;;;;;;;5051103;28;20861;-72
2022/03/21 13:22:52;;;;;;;;;;;;;;;;;;;;;
2022/03/21 13:25:34;;;;;;;12.77;10.00;;;;;;;;;;5047602;28;20451;-72
2022/03/21 13:28:11;;;;;;;12.17;9.40;;;;;;;;;;5035386;28;20479;-74
2022/03/21 13:31:01;;;;;;;11.40;8.73;;;;;;;;;;5050919;28;20568;-73
2022/03/21 13:33:31;;;;;;;14.40;9.70;;;;;;;;;;5048371;28;20515;-73
2022/03/21 13:36:03;;;;;;;17.23;9.80;;;;;;;;;;5049519;28;21494;-73
2022/03/21 13:38:40;;;;;;;15.30;10.40;;;;;;;;;;5055419;28;20455;-73
2022/03/21 13:41:30;;;;;;;16.27;11.90;;;;;;;;;;5051148;28;20519;-73
2022/03/21 13:44:05;;;;;;;23.80;10.57;;;;;;;;;;5049206;28;20773;-73
2022/03/21 13:46:37;;;;;;;15.10;9.57;;;;;;;;;;5046645;28;20485;-74
2022/03/21 13:49:05;;;;;;;17.57;10.00;;;;;;;;;;5049103;28;20523;-73
2022/03/21 13:51:33;;;;;;;15.30;9.60;;;;;;;;;;5049619;28;20620;-72
2022/03/21 13:57:16;;;;;;;14.03;10.57;;;;;;;;;;5051171;28;20441;-73
2022/03/21 14:00:07;;;;;;;14.77;10.50;;;;;;;;;;5045788;28;20458;-73
2022/03/21 14:02:44;;;;;;;13.87;9.97;;;;;;;;;;5045634;28;20519;-72
2022/03/21 14:05:24;;;;;;;15.70;9.37;;;;;;;;;;5050458;28;20870;-72
2022/03/21 14:08:09;;;;;;;14.63;10.50;;;;;;;;;;5048271;28;20516;-73
2022/03/21 14:13:55;;;;;;;21.73;12.03;;;;;;;;;;5044348;28;20496;-73
2022/03/21 14:16:25;;;;;;;11.63;10.40;;;;;;;;;;5049322;28;20919;-73
2022/03/21 14:18:54;;;;;;;15.13;9.77;;;;;;;;;;5051024;28;20513;-73
2022/03/21 14:21:45;;;;;;;;;;;;;;;;;;;;;
2022/03/21 14:24:19;;;;;;;12.03;10.17;;;;;;;;;;5048804;28;20739;-73
2022/03/21 14:26:48;;;;;;;19.80;13.03;;;;;;;;;;5051914;28;20477;-73
2022/03/21 14:29:46;;;;;;;18.80;9.13;;;;;;;;;;5043067;28;20467;-73
2022/03/21 14:32:18;;;;;;;12.93;9.90;;;;;;;;;;5031743;28;20461;-72
2022/03/21 14:34:54;;;;;;;14.83;9.50;;;;;;;;;;5042812;28;20453;-72
2022/03/21 14:37:22;;;;;;;15.07;9.37;;;;;;;;;;5047266;28;20457;-71
2022/03/21 14:39:54;;;;;;;14.70;8.90;;;;;;;;;;5051298;28;20434;-73
2022/03/21 14:45:12;;;;;;;14.10;9.57;;;;;;;;;;5032378;28;20851;-74
2022/03/21 14:50:42;;;;;;;13.83;9.63;;;;;;;;;;5050055;28;20448;-73
2022/03/21 14:53:10;;;;;;;16.50;8.27;;;;;;;;;;5038482;28;20462;-70
2022/03/21 14:55:44;;;;;;;12.60;8.80;;;;;;;;;;5048656;28;20508;-71
2022/03/21 14:58:14;;;;;;;11.50;9.23;;;;;;;;;;5043357;28;20441;-72
2022/03/21 15:00:46;;;;;;;12.63;9.17;;;;;;;;;;5052811;28;20461;-72
2022/03/21 15:03:16;;;;;;;12.50;8.80;;;;;;;;;;5050630;28;20929;-73
2022/03/21 15:05:46;;;;;;;13.33;9.07;;;;;;;;;;5054721;28;20538;-73
2022/03/21 15:08:38;;;;;;;13.43;9.50;;;;;;;;;;5053564;28;20535;-73
2022/03/21 15:11:06;;;;;;;13.87;9.53;;;;;;;;;;5035700;28;20457;-72
2022/03/21 15:13:37;;;;;;;14.00;9.80;;;;;;;;;;5038726;28;20456;-71
2022/03/21 15:16:06;;;;;;;11.80;9.77;;;;;;;;;;5054460;28;20519;-71
2022/03/21 15:18:37;;;;;;;13.50;8.83;;;;;;;;;;5056260;28;20924;-73
2022/03/21 15:21:05;;;;;;;11.80;8.90;;;;;;;;;;5046035;28;20461;-72
2022/03/21 15:23:36;;;;;;;13.33;9.63;;;;;;;;;;5036055;28;20464;-73
2022/03/21 15:26:04;;;;;;;10.40;8.70;;;;;;;;;;5048452;28;20460;-73
2022/03/21 15:28:33;;;;;;;12.87;9.27;;;;;;;;;;5053475;28;20457;-73
2022/03/21 15:31:02;;;;;;;13.73;8.40;;;;;;;;;;5051966;28;20901;-72
2022/03/21 15:33:55;;;;;;;9.80;7.73;;;;;;;;;;5054557;28;20453;-74
2022/03/21 15:42:28;;;;;;;13.07;9.30;;;;;;;;;;5056322;28;20483;-74
2022/03/21 15:44:57;;;;;;;13.93;9.20;;;;;;;;;;5056102;28;20546;-72
2022/03/21 15:47:28;;;;;;;14.40;9.13;;;;;;;;;;5055565;28;20937;-73
2022/03/21 15:49:57;;;;;;;17.50;10.53;;;;;;;;;;5052892;28;20576;-73
2022/03/21 15:52:27;;;;;;;11.83;8.83;;;;;;;;;;5051273;28;20468;-72
2022/03/21 15:54:58;;;;;;;13.87;10.27;;;;;;;;;;5049664;28;20895;-73
2022/03/21 15:57:26;;;;;;;13.27;9.73;;;;;;;;;;5044340;28;20457;-72
2022/03/21 15:59:55;;;;;;;13.80;9.03;;;;;;;;;;5052959;28;20877;-72
2022/03/21 16:02:24;;;;;;;12.63;9.30;;;;;;;;;;5053418;28;20476;-72
2022/03/21 16:04:54;;;;;;;12.77;10.23;;;;;;;;;;5035819;28;20544;-72
2022/03/21 16:07:24;;;;;;;14.93;9.33;;;;;;;;;;5035232;28;20513;-72
2022/03/21 16:09:54;;;;;;;12.83;8.90;;;;;;;;;;5048225;28;20845;-71
2022/03/21 16:12:22;;;;;;;11.90;8.10;;;;;;;;;;5047109;28;20449;-72
2022/03/21 16:14:55;;;;;;;15.20;8.77;;;;;;;;;;5055136;28;21086;-72
2022/03/21 16:17:23;;;;;;;14.00;10.80;;;;;;;;;;5054938;28;20449;-71